sensor_id;sensor_type;location;lat;lon;timestamp;temperature;humidity
30244;DHT22;64022;53.652;9.792;2024-03-25T00:00:29;22.00;50.20
30244;DHT22;64022;53.652;9.792;2024-03-25T00:02:56;22.00;50.20
30244;DHT22;64022;53.652;9.792;2024-03-25T00:05:22;22.00;50.30
30244;DHT22;64022;53.652;9.792;2024-03-25T00:07:51;22.00;50.30
30244;DHT22;64022;53.652;9.792;2024-03-25T00:10:17;22.10;50.30
30244;DHT22;64022;53.652;9.792;2024-03-25T00:12:46;22.10;50.30
30244;DHT22;64022;53.652;9.792;2024-03-25T00:15:12;22.00;50.30
30244;DHT22;64022;53.652;9.792;2024-03-25T00:17:38;22.00;50.30
30244;DHT22;64022;53.652;9.792;2024-03-25T00:20:04;22.00;50.20
30244;DHT22;64022;53.652;9.792;2024-03-25T00:22:31;22.00;50.30
30244;DHT22;64022;53.652;9.792;2024-03-25T00:24:57;22.00;50.30
30244;DHT22;64022;53.652;9.792;2024-03-25T00:27:23;22.00;50.30
30244;DHT22;64022;53.652;9.792;2024-03-25T00:29:50;22.00;50.30
30244;DHT22;64022;53.652;9.792;2024-03-25T00:32:15;22.00;50.30
30244;DHT22;64022;53.652;9.792;2024-03-25T00:34:41;22.00;50.30
30244;DHT22;64022;53.652;9.792;2024-03-25T00:37:07;22.10;50.30
30244;DHT22;64022;53.652;9.792;2024-03-25T00:39:33;22.00;50.30
30244;DHT22;64022;53.652;9.792;2024-03-25T00:42:00;22.00;50.30
30244;DHT22;64022;53.652;9.792;2024-03-25T00:44:26;22.00;50.30
30244;DHT22;64022;53.652;9.792;2024-03-25T00:46:52;22.00;50.30
30244;DHT22;64022;53.652;9.792;2024-03-25T00:49:18;22.10;50.30
30244;DHT22;64022;53.652;9.792;2024-03-25T00:51:45;22.10;50.40
30244;DHT22;64022;53.652;9.792;2024-03-25T00:54:11;22.00;50.30
30244;DHT22;64022;53.652;9.792;2024-03-25T00:56:37;22.00;50.30
30244;DHT22;64022;53.652;9.792;2024-03-25T00:59:03;22.00;50.30
30244;DHT22;64022;53.652;9.792;2024-03-25T01:01:29;22.00;50.30
30244;DHT22;64022;53.652;9.792;2024-03-25T01:03:55;22.00;50.30
30244;DHT22;64022;53.652;9.792;2024-03-25T01:06:21;22.10;50.40
30244;DHT22;64022;53.652;9.792;2024-03-25T01:08:47;22.00;50.40
30244;DHT22;64022;53.652;9.792;2024-03-25T01:11:13;22.10;50.40
30244;DHT22;64022;53.652;9.792;2024-03-25T01:13:40;22.00;50.30
30244;DHT22;64022;53.652;9.792;2024-03-25T01:16:09;22.00;50.40
30244;DHT22;64022;53.652;9.792;2024-03-25T01:18:34;22.10;50.40
30244;DHT22;64022;53.652;9.792;2024-03-25T01:21:00;22.10;50.40
30244;DHT22;64022;53.652;9.792;2024-03-25T01:23:26;22.00;50.90
30244;DHT22;64022;53.652;9.792;2024-03-25T01:25:52;22.10;50.40
30244;DHT22;64022;53.652;9.792;2024-03-25T01:28:17;22.10;50.40
30244;DHT22;64022;53.652;9.792;2024-03-25T01:30:43;22.10;50.40
30244;DHT22;64022;53.652;9.792;2024-03-25T01:33:09;22.10;50.40
30244;DHT22;64022;53.652;9.792;2024-03-25T01:35:35;22.00;50.40
30244;DHT22;64022;53.652;9.792;2024-03-25T01:38:01;22.10;50.40
30244;DHT22;64022;53.652;9.792;2024-03-25T01:40:27;22.00;50.40
30244;DHT22;64022;53.652;9.792;2024-03-25T01:42:56;22.00;50.40
30244;DHT22;64022;53.652;9.792;2024-03-25T01:45:27;22.10;50.40
30244;DHT22;64022;53.652;9.792;2024-03-25T01:47:54;22.00;50.40
30244;DHT22;64022;53.652;9.792;2024-03-25T01:50:21;22.10;50.40
30244;DHT22;64022;53.652;9.792;2024-03-25T01:52:50;22.10;50.40
30244;DHT22;64022;53.652;9.792;2024-03-25T01:55:17;22.10;50.50
30244;DHT22;64022;53.652;9.792;2024-03-25T01:57:43;22.10;50.40
30244;DHT22;64022;53.652;9.792;2024-03-25T02:00:10;22.00;50.90
30244;DHT22;64022;53.652;9.792;2024-03-25T02:02:37;22.10;50.40
30244;DHT22;64022;53.652;9.792;2024-03-25T02:05:04;22.10;50.40
30244;DHT22;64022;53.652;9.792;2024-03-25T02:07:30;22.00;50.40
30244;DHT22;64022;53.652;9.792;2024-03-25T02:09:56;22.10;50.40
30244;DHT22;64022;53.652;9.792;2024-03-25T02:12:22;22.10;50.50
30244;DHT22;64022;53.652;9.792;2024-03-25T02:14:49;22.00;50.40
30244;DHT22;64022;53.652;9.792;2024-03-25T02:17:15;22.00;50.40
30244;DHT22;64022;53.652;9.792;2024-03-25T02:19:41;22.10;50.50
30244;DHT22;64022;53.652;9.792;2024-03-25T02:22:07;22.10;50.40
30244;DHT22;64022;53.652;9.792;2024-03-25T02:24:33;22.10;50.50
30244;DHT22;64022;53.652;9.792;2024-03-25T02:26:58;22.10;50.40
30244;DHT22;64022;53.652;9.792;2024-03-25T02:29:32;22.00;50.40
30244;DHT22;64022;53.652;9.792;2024-03-25T02:32:01;22.00;50.40
30244;DHT22;64022;53.652;9.792;2024-03-25T02:34:27;22.10;50.50
30244;DHT22;64022;53.652;9.792;2024-03-25T02:36:52;22.10;50.50
30244;DHT22;64022;53.652;9.792;2024-03-25T02:39:19;22.00;50.40
30244;DHT22;64022;53.652;9.792;2024-03-25T02:41:46;22.10;50.50
30244;DHT22;64022;53.652;9.792;2024-03-25T02:44:12;22.10;50.50
30244;DHT22;64022;53.652;9.792;2024-03-25T02:46:39;22.00;50.50
30244;DHT22;64022;53.652;9.792;2024-03-25T02:49:05;22.10;50.50
30244;DHT22;64022;53.652;9.792;2024-03-25T02:51:35;22.00;50.50
30244;DHT22;64022;53.652;9.792;2024-03-25T02:54:01;22.00;50.50
30244;DHT22;64022;53.652;9.792;2024-03-25T02:56:26;22.00;50.50
30244;DHT22;64022;53.652;9.792;2024-03-25T02:58:52;22.00;50.50
30244;DHT22;64022;53.652;9.792;2024-03-25T03:01:18;22.10;50.50
30244;DHT22;64022;53.652;9.792;2024-03-25T03:03:45;22.10;50.50
30244;DHT22;64022;53.652;9.792;2024-03-25T03:06:10;22.10;50.50
30244;DHT22;64022;53.652;9.792;2024-03-25T03:08:38;22.10;50.60
30244;DHT22;64022;53.652;9.792;2024-03-25T03:11:04;22.00;50.50
30244;DHT22;64022;53.652;9.792;2024-03-25T03:13:30;22.10;50.60
30244;DHT22;64022;53.652;9.792;2024-03-25T03:15:57;22.10;50.60
30244;DHT22;64022;53.652;9.792;2024-03-25T03:18:22;22.00;50.50
30244;DHT22;64022;53.652;9.792;2024-03-25T03:20:48;22.10;50.60
30244;DHT22;64022;53.652;9.792;2024-03-25T03:23:15;22.10;50.60
30244;DHT22;64022;53.652;9.792;2024-03-25T03:25:41;22.10;50.60
30244;DHT22;64022;53.652;9.792;2024-03-25T03:28:06;22.10;50.60
30244;DHT22;64022;53.652;9.792;2024-03-25T03:30:32;22.00;50.60
30244;DHT22;64022;53.652;9.792;2024-03-25T03:32:58;22.10;50.60
30244;DHT22;64022;53.652;9.792;2024-03-25T03:35:23;22.10;50.60
30244;DHT22;64022;53.652;9.792;2024-03-25T03:37:49;22.00;50.60
30244;DHT22;64022;53.652;9.792;2024-03-25T03:40:15;22.10;50.60
30244;DHT22;64022;53.652;9.792;2024-03-25T03:42:41;22.10;50.60
30244;DHT22;64022;53.652;9.792;2024-03-25T03:45:07;22.10;50.60
30244;DHT22;64022;53.652;9.792;2024-03-25T03:47:34;22.10;50.60
30244;DHT22;64022;53.652;9.792;2024-03-25T03:50:00;22.10;50.60
30244;DHT22;64022;53.652;9.792;2024-03-25T03:52:26;22.10;50.60
30244;DHT22;64022;53.652;9.792;2024-03-25T03:54:52;22.10;50.60
30244;DHT22;64022;53.652;9.792;2024-03-25T03:57:20;22.10;50.70
30244;DHT22;64022;53.652;9.792;2024-03-25T03:59:46;22.10;50.70
30244;DHT22;64022;53.652;9.792;2024-03-25T04:02:12;22.00;50.60
30244;DHT22;64022;53.652;9.792;2024-03-25T04:04:38;22.10;50.70
30244;DHT22;64022;53.652;9.792;2024-03-25T04:07:04;22.10;50.70
30244;DHT22;64022;53.652;9.792;2024-03-25T04:09:39;22.10;50.70
30244;DHT22;64022;53.652;9.792;2024-03-25T04:12:04;22.10;50.60
30244;DHT22;64022;53.652;9.792;2024-03-25T04:14:31;22.10;50.70
30244;DHT22;64022;53.652;9.792;2024-03-25T04:16:58;22.10;50.60
30244;DHT22;64022;53.652;9.792;2024-03-25T04:19:24;22.10;50.70
30244;DHT22;64022;53.652;9.792;2024-03-25T04:21:53;22.10;50.70
30244;DHT22;64022;53.652;9.792;2024-03-25T04:24:19;22.10;50.70
30244;DHT22;64022;53.652;9.792;2024-03-25T04:26:45;22.10;50.70
30244;DHT22;64022;53.652;9.792;2024-03-25T04:29:11;22.10;50.70
30244;DHT22;64022;53.652;9.792;2024-03-25T04:31:36;22.10;50.70
30244;DHT22;64022;53.652;9.792;2024-03-25T04:34:03;22.10;50.70
30244;DHT22;64022;53.652;9.792;2024-03-25T04:36:30;22.10;50.70
30244;DHT22;64022;53.652;9.792;2024-03-25T04:38:55;22.10;50.70
30244;DHT22;64022;53.652;9.792;2024-03-25T04:41:21;22.10;50.70
30244;DHT22;64022;53.652;9.792;2024-03-25T04:43:47;22.10;50.70
30244;DHT22;64022;53.652;9.792;2024-03-25T04:46:13;22.10;50.70
30244;DHT22;64022;53.652;9.792;2024-03-25T04:48:38;22.10;50.70
30244;DHT22;64022;53.652;9.792;2024-03-25T04:51:05;22.10;51.20
30244;DHT22;64022;53.652;9.792;2024-03-25T04:53:30;22.10;50.70
30244;DHT22;64022;53.652;9.792;2024-03-25T04:55:56;22.10;50.70
30244;DHT22;64022;53.652;9.792;2024-03-25T04:58:23;22.10;50.70
30244;DHT22;64022;53.652;9.792;2024-03-25T05:00:48;22.10;50.70
30244;DHT22;64022;53.652;9.792;2024-03-25T05:03:14;22.10;50.60
30244;DHT22;64022;53.652;9.792;2024-03-25T05:05:41;22.10;50.70
30244;DHT22;64022;53.652;9.792;2024-03-25T05:08:07;22.10;50.60
30244;DHT22;64022;53.652;9.792;2024-03-25T05:10:34;22.10;50.70
30244;DHT22;64022;53.652;9.792;2024-03-25T05:13:00;22.10;50.70
30244;DHT22;64022;53.652;9.792;2024-03-25T05:15:26;22.10;50.70
30244;DHT22;64022;53.652;9.792;2024-03-25T05:17:52;22.10;50.70
30244;DHT22;64022;53.652;9.792;2024-03-25T05:20:18;22.10;50.70
30244;DHT22;64022;53.652;9.792;2024-03-25T05:22:44;22.10;50.70
30244;DHT22;64022;53.652;9.792;2024-03-25T05:25:11;22.10;50.70
30244;DHT22;64022;53.652;9.792;2024-03-25T05:27:37;22.10;50.70
30244;DHT22;64022;53.652;9.792;2024-03-25T05:30:02;22.10;50.70
30244;DHT22;64022;53.652;9.792;2024-03-25T05:32:29;22.10;50.70
30244;DHT22;64022;53.652;9.792;2024-03-25T05:34:54;22.10;50.70
30244;DHT22;64022;53.652;9.792;2024-03-25T05:37:20;22.10;50.70
30244;DHT22;64022;53.652;9.792;2024-03-25T05:39:46;22.10;50.70
30244;DHT22;64022;53.652;9.792;2024-03-25T05:42:12;22.10;50.70
30244;DHT22;64022;53.652;9.792;2024-03-25T05:44:39;22.10;50.70
30244;DHT22;64022;53.652;9.792;2024-03-25T05:47:04;22.10;50.80
30244;DHT22;64022;53.652;9.792;2024-03-25T05:49:30;22.10;50.80
30244;DHT22;64022;53.652;9.792;2024-03-25T05:51:56;22.00;50.70
30244;DHT22;64022;53.652;9.792;2024-03-25T05:54:21;22.10;50.80
30244;DHT22;64022;53.652;9.792;2024-03-25T05:56:47;22.10;50.80
30244;DHT22;64022;53.652;9.792;2024-03-25T05:59:13;22.10;50.80
30244;DHT22;64022;53.652;9.792;2024-03-25T06:01:39;22.10;50.80
30244;DHT22;64022;53.652;9.792;2024-03-25T06:04:05;22.10;50.80
30244;DHT22;64022;53.652;9.792;2024-03-25T06:06:31;22.10;50.80
30244;DHT22;64022;53.652;9.792;2024-03-25T06:08:58;22.10;50.80
30244;DHT22;64022;53.652;9.792;2024-03-25T06:11:25;22.10;50.80
30244;DHT22;64022;53.652;9.792;2024-03-25T06:13:51;22.10;50.80
30244;DHT22;64022;53.652;9.792;2024-03-25T06:16:17;22.10;50.80
30244;DHT22;64022;53.652;9.792;2024-03-25T06:18:42;22.10;50.80
30244;DHT22;64022;53.652;9.792;2024-03-25T06:21:08;22.10;50.80
30244;DHT22;64022;53.652;9.792;2024-03-25T06:23:33;22.10;50.80
30244;DHT22;64022;53.652;9.792;2024-03-25T06:26:00;22.20;50.90
30244;DHT22;64022;53.652;9.792;2024-03-25T06:28:25;22.10;50.80
30244;DHT22;64022;53.652;9.792;2024-03-25T06:30:51;22.10;50.80
30244;DHT22;64022;53.652;9.792;2024-03-25T06:33:36;22.20;50.90
30244;DHT22;64022;53.652;9.792;2024-03-25T06:36:21;22.20;50.90
30244;DHT22;64022;53.652;9.792;2024-03-25T06:38:46;22.10;50.80
30244;DHT22;64022;53.652;9.792;2024-03-25T06:41:12;22.20;50.80
30244;DHT22;64022;53.652;9.792;2024-03-25T06:43:39;22.20;50.90
30244;DHT22;64022;53.652;9.792;2024-03-25T06:46:05;22.20;50.80
30244;DHT22;64022;53.652;9.792;2024-03-25T06:48:32;22.10;50.80
30244;DHT22;64022;53.652;9.792;2024-03-25T06:50:58;22.20;50.90
30244;DHT22;64022;53.652;9.792;2024-03-25T06:53:24;22.20;50.90
30244;DHT22;64022;53.652;9.792;2024-03-25T06:55:50;22.20;50.90
30244;DHT22;64022;53.652;9.792;2024-03-25T06:58:16;22.20;50.90
30244;DHT22;64022;53.652;9.792;2024-03-25T07:00:43;22.20;50.90
30244;DHT22;64022;53.652;9.792;2024-03-25T07:03:09;22.20;50.90
30244;DHT22;64022;53.652;9.792;2024-03-25T07:05:35;22.20;51.00
30244;DHT22;64022;53.652;9.792;2024-03-25T07:08:01;22.20;51.00
30244;DHT22;64022;53.652;9.792;2024-03-25T07:10:27;22.20;50.90
30244;DHT22;64022;53.652;9.792;2024-03-25T07:12:53;22.20;51.00
30244;DHT22;64022;53.652;9.792;2024-03-25T07:15:19;22.20;51.00
30244;DHT22;64022;53.652;9.792;2024-03-25T07:17:45;22.20;51.00
30244;DHT22;64022;53.652;9.792;2024-03-25T07:20:10;22.20;51.10
30244;DHT22;64022;53.652;9.792;2024-03-25T07:22:37;22.20;51.00
30244;DHT22;64022;53.652;9.792;2024-03-25T07:25:03;22.20;51.00
30244;DHT22;64022;53.652;9.792;2024-03-25T07:27:29;22.20;51.00
30244;DHT22;64022;53.652;9.792;2024-03-25T07:29:54;22.20;51.00
30244;DHT22;64022;53.652;9.792;2024-03-25T07:32:21;22.20;51.10
30244;DHT22;64022;53.652;9.792;2024-03-25T07:34:46;22.20;51.10
30244;DHT22;64022;53.652;9.792;2024-03-25T07:37:12;22.20;51.10
30244;DHT22;64022;53.652;9.792;2024-03-25T07:39:37;22.20;51.10
30244;DHT22;64022;53.652;9.792;2024-03-25T07:42:04;22.20;51.10
30244;DHT22;64022;53.652;9.792;2024-03-25T07:44:30;22.20;51.10
30244;DHT22;64022;53.652;9.792;2024-03-25T07:46:57;22.20;51.10
30244;DHT22;64022;53.652;9.792;2024-03-25T07:49:22;22.20;51.10
30244;DHT22;64022;53.652;9.792;2024-03-25T07:51:48;22.20;51.10
30244;DHT22;64022;53.652;9.792;2024-03-25T07:54:13;22.20;51.10
30244;DHT22;64022;53.652;9.792;2024-03-25T07:56:42;22.20;51.10
30244;DHT22;64022;53.652;9.792;2024-03-25T07:59:08;22.20;51.10
30244;DHT22;64022;53.652;9.792;2024-03-25T08:01:34;22.20;51.10
30244;DHT22;64022;53.652;9.792;2024-03-25T08:04:00;22.20;51.20
30244;DHT22;64022;53.652;9.792;2024-03-25T08:06:27;22.20;51.20
30244;DHT22;64022;53.652;9.792;2024-03-25T08:08:53;22.20;51.20
30244;DHT22;64022;53.652;9.792;2024-03-25T08:11:18;22.20;51.30
30244;DHT22;64022;53.652;9.792;2024-03-25T08:13:45;22.20;51.30
30244;DHT22;64022;53.652;9.792;2024-03-25T08:16:11;22.20;51.40
30244;DHT22;64022;53.652;9.792;2024-03-25T08:18:36;22.20;51.40
30244;DHT22;64022;53.652;9.792;2024-03-25T08:21:02;22.20;51.40
30244;DHT22;64022;53.652;9.792;2024-03-25T08:23:28;22.30;51.50
30244;DHT22;64022;53.652;9.792;2024-03-25T08:25:56;22.20;51.50
30244;DHT22;64022;53.652;9.792;2024-03-25T08:28:22;22.20;51.50
30244;DHT22;64022;53.652;9.792;2024-03-25T08:30:48;22.30;51.60
30244;DHT22;64022;53.652;9.792;2024-03-25T08:33:13;22.30;51.60
30244;DHT22;64022;53.652;9.792;2024-03-25T08:35:39;22.30;51.60
30244;DHT22;64022;53.652;9.792;2024-03-25T08:38:06;22.30;51.70
30244;DHT22;64022;53.652;9.792;2024-03-25T08:40:32;22.30;51.70
30244;DHT22;64022;53.652;9.792;2024-03-25T08:42:58;22.30;51.70
30244;DHT22;64022;53.652;9.792;2024-03-25T08:45:24;22.30;51.80
30244;DHT22;64022;53.652;9.792;2024-03-25T08:47:51;22.30;51.80
30244;DHT22;64022;53.652;9.792;2024-03-25T08:50:17;22.30;51.90
30244;DHT22;64022;53.652;9.792;2024-03-25T08:52:43;22.30;51.90
30244;DHT22;64022;53.652;9.792;2024-03-25T08:55:09;22.30;51.90
30244;DHT22;64022;53.652;9.792;2024-03-25T08:57:35;22.30;51.90
30244;DHT22;64022;53.652;9.792;2024-03-25T09:00:03;22.30;52.00
30244;DHT22;64022;53.652;9.792;2024-03-25T09:02:32;22.30;52.00
30244;DHT22;64022;53.652;9.792;2024-03-25T09:04:59;22.40;52.10
30244;DHT22;64022;53.652;9.792;2024-03-25T09:07:25;22.40;52.20
30244;DHT22;64022;53.652;9.792;2024-03-25T09:09:51;22.40;52.20
30244;DHT22;64022;53.652;9.792;2024-03-25T09:12:41;22.40;52.20
30244;DHT22;64022;53.652;9.792;2024-03-25T09:15:07;22.40;52.20
30244;DHT22;64022;53.652;9.792;2024-03-25T09:17:32;22.40;52.30
30244;DHT22;64022;53.652;9.792;2024-03-25T09:19:58;22.40;52.30
30244;DHT22;64022;53.652;9.792;2024-03-25T09:22:24;22.40;52.30
30244;DHT22;64022;53.652;9.792;2024-03-25T09:24:49;22.40;52.40
30244;DHT22;64022;53.652;9.792;2024-03-25T09:27:15;22.40;52.40
30244;DHT22;64022;53.652;9.792;2024-03-25T09:29:42;22.40;52.50
30244;DHT22;64022;53.652;9.792;2024-03-25T09:32:08;22.40;52.50
30244;DHT22;64022;53.652;9.792;2024-03-25T09:34:34;22.40;52.60
30244;DHT22;64022;53.652;9.792;2024-03-25T09:37:00;22.40;52.60
30244;DHT22;64022;53.652;9.792;2024-03-25T09:39:26;22.40;52.70
30244;DHT22;64022;53.652;9.792;2024-03-25T09:41:54;22.40;52.70
30244;DHT22;64022;53.652;9.792;2024-03-25T09:44:21;22.40;52.70
30244;DHT22;64022;53.652;9.792;2024-03-25T09:46:47;22.40;52.70
30244;DHT22;64022;53.652;9.792;2024-03-25T09:49:14;22.40;52.80
30244;DHT22;64022;53.652;9.792;2024-03-25T09:51:41;22.40;52.90
30244;DHT22;64022;53.652;9.792;2024-03-25T09:54:07;22.40;52.90
30244;DHT22;64022;53.652;9.792;2024-03-25T09:56:33;22.50;52.90
30244;DHT22;64022;53.652;9.792;2024-03-25T09:58:59;22.40;52.90
30244;DHT22;64022;53.652;9.792;2024-03-25T10:01:25;22.40;53.50
30244;DHT22;64022;53.652;9.792;2024-03-25T10:03:51;22.40;53.00
30244;DHT22;64022;53.652;9.792;2024-03-25T10:06:16;22.40;53.00
30244;DHT22;64022;53.652;9.792;2024-03-25T10:08:42;22.40;53.60
30244;DHT22;64022;53.652;9.792;2024-03-25T10:11:07;22.40;53.10
30244;DHT22;64022;53.652;9.792;2024-03-25T10:13:33;22.50;53.20
30244;DHT22;64022;53.652;9.792;2024-03-25T10:15:59;22.40;53.20
30244;DHT22;64022;53.652;9.792;2024-03-25T10:18:26;22.50;53.30
30244;DHT22;64022;53.652;9.792;2024-03-25T10:20:53;22.40;53.30
30244;DHT22;64022;53.652;9.792;2024-03-25T10:23:25;22.40;53.30
30244;DHT22;64022;53.652;9.792;2024-03-25T10:25:54;22.40;53.40
30244;DHT22;64022;53.652;9.792;2024-03-25T10:28:21;22.40;53.40
30244;DHT22;64022;53.652;9.792;2024-03-25T10:30:46;22.40;53.50
30244;DHT22;64022;53.652;9.792;2024-03-25T10:33:13;22.50;53.50
30244;DHT22;64022;53.652;9.792;2024-03-25T10:35:39;22.40;53.50
30244;DHT22;64022;53.652;9.792;2024-03-25T10:38:06;22.40;53.60
30244;DHT22;64022;53.652;9.792;2024-03-25T10:40:35;22.40;53.60
30244;DHT22;64022;53.652;9.792;2024-03-25T10:45:34;22.40;53.60
30244;DHT22;64022;53.652;9.792;2024-03-25T10:48:02;22.50;53.70
30244;DHT22;64022;53.652;9.792;2024-03-25T10:50:29;22.40;53.70
30244;DHT22;64022;53.652;9.792;2024-03-25T10:52:55;22.40;53.70
30244;DHT22;64022;53.652;9.792;2024-03-25T10:55:25;22.40;53.70
30244;DHT22;64022;53.652;9.792;2024-03-25T10:57:52;22.50;53.80
30244;DHT22;64022;53.652;9.792;2024-03-25T11:00:18;22.40;53.80
30244;DHT22;64022;53.652;9.792;2024-03-25T11:02:45;22.50;53.90
30244;DHT22;64022;53.652;9.792;2024-03-25T11:05:11;22.50;53.90
30244;DHT22;64022;53.652;9.792;2024-03-25T11:07:37;22.40;53.80
30244;DHT22;64022;53.652;9.792;2024-03-25T11:10:06;22.50;54.00
30244;DHT22;64022;53.652;9.792;2024-03-25T11:12:32;22.50;54.00
30244;DHT22;64022;53.652;9.792;2024-03-25T11:15:00;22.40;53.90
30244;DHT22;64022;53.652;9.792;2024-03-25T11:17:26;22.50;54.00
30244;DHT22;64022;53.652;9.792;2024-03-25T11:19:52;22.40;54.00
30244;DHT22;64022;53.652;9.792;2024-03-25T11:22:23;22.50;54.10
30244;DHT22;64022;53.652;9.792;2024-03-25T11:24:50;22.40;54.10
30244;DHT22;64022;53.652;9.792;2024-03-25T11:27:21;22.40;54.10
30244;DHT22;64022;53.652;9.792;2024-03-25T11:29:48;22.40;54.10
30244;DHT22;64022;53.652;9.792;2024-03-25T11:32:14;22.40;54.20
30244;DHT22;64022;53.652;9.792;2024-03-25T11:34:49;22.40;54.20
30244;DHT22;64022;53.652;9.792;2024-03-25T11:37:17;22.40;54.20
30244;DHT22;64022;53.652;9.792;2024-03-25T11:39:43;22.40;54.20
30244;DHT22;64022;53.652;9.792;2024-03-25T11:42:09;22.50;54.40
30244;DHT22;64022;53.652;9.792;2024-03-25T11:44:36;22.50;54.30
30244;DHT22;64022;53.652;9.792;2024-03-25T11:47:04;22.40;54.30
30244;DHT22;64022;53.652;9.792;2024-03-25T11:49:30;22.50;54.40
30244;DHT22;64022;53.652;9.792;2024-03-25T11:51:58;22.40;54.40
30244;DHT22;64022;53.652;9.792;2024-03-25T11:54:27;22.40;54.40
30244;DHT22;64022;53.652;9.792;2024-03-25T11:56:53;22.40;54.40
30244;DHT22;64022;53.652;9.792;2024-03-25T11:59:20;22.40;54.50
30244;DHT22;64022;53.652;9.792;2024-03-25T12:01:46;22.40;54.50
30244;DHT22;64022;53.652;9.792;2024-03-25T12:04:12;22.40;54.50
30244;DHT22;64022;53.652;9.792;2024-03-25T12:06:38;22.40;54.60
30244;DHT22;64022;53.652;9.792;2024-03-25T12:09:04;22.40;54.60
30244;DHT22;64022;53.652;9.792;2024-03-25T12:11:48;22.50;54.70
30244;DHT22;64022;53.652;9.792;2024-03-25T12:14:14;22.40;54.60
30244;DHT22;64022;53.652;9.792;2024-03-25T12:16:42;22.50;54.70
30244;DHT22;64022;53.652;9.792;2024-03-25T12:19:07;22.40;54.70
30244;DHT22;64022;53.652;9.792;2024-03-25T12:21:33;22.40;54.70
30244;DHT22;64022;53.652;9.792;2024-03-25T12:23:59;22.50;54.80
30244;DHT22;64022;53.652;9.792;2024-03-25T12:26:25;22.50;54.80
30244;DHT22;64022;53.652;9.792;2024-03-25T12:28:51;22.40;54.80
30244;DHT22;64022;53.652;9.792;2024-03-25T12:31:17;22.50;54.90
30244;DHT22;64022;53.652;9.792;2024-03-25T12:33:44;22.50;54.90
30244;DHT22;64022;53.652;9.792;2024-03-25T12:36:12;22.40;54.80
30244;DHT22;64022;53.652;9.792;2024-03-25T12:38:38;22.40;54.90
30244;DHT22;64022;53.652;9.792;2024-03-25T12:43:31;22.40;54.90
30244;DHT22;64022;53.652;9.792;2024-03-25T12:45:58;22.50;55.00
30244;DHT22;64022;53.652;9.792;2024-03-25T12:48:23;22.40;55.00
30244;DHT22;64022;53.652;9.792;2024-03-25T12:50:49;22.40;55.00
30244;DHT22;64022;53.652;9.792;2024-03-25T12:53:17;22.40;55.50
30244;DHT22;64022;53.652;9.792;2024-03-25T12:55:43;22.40;55.10
30244;DHT22;64022;53.652;9.792;2024-03-25T12:58:10;22.40;55.10
30244;DHT22;64022;53.652;9.792;2024-03-25T13:00:36;22.40;55.10
30244;DHT22;64022;53.652;9.792;2024-03-25T13:03:04;22.40;55.10
30244;DHT22;64022;53.652;9.792;2024-03-25T13:05:32;22.40;55.10
30244;DHT22;64022;53.652;9.792;2024-03-25T13:07:57;22.40;55.10
30244;DHT22;64022;53.652;9.792;2024-03-25T13:10:23;22.40;55.10
30244;DHT22;64022;53.652;9.792;2024-03-25T13:12:49;22.40;55.10
30244;DHT22;64022;53.652;9.792;2024-03-25T13:15:15;22.40;55.20
30244;DHT22;64022;53.652;9.792;2024-03-25T13:17:41;22.40;55.20
30244;DHT22;64022;53.652;9.792;2024-03-25T13:20:07;22.40;55.20
30244;DHT22;64022;53.652;9.792;2024-03-25T13:22:32;22.40;55.20
30244;DHT22;64022;53.652;9.792;2024-03-25T13:24:58;22.40;55.20
30244;DHT22;64022;53.652;9.792;2024-03-25T13:27:25;22.40;55.30
30244;DHT22;64022;53.652;9.792;2024-03-25T13:29:51;22.40;55.30
30244;DHT22;64022;53.652;9.792;2024-03-25T13:32:20;22.40;55.30
30244;DHT22;64022;53.652;9.792;2024-03-25T13:34:46;22.40;55.30
30244;DHT22;64022;53.652;9.792;2024-03-25T13:37:12;22.40;55.30
30244;DHT22;64022;53.652;9.792;2024-03-25T13:39:38;22.40;55.30
30244;DHT22;64022;53.652;9.792;2024-03-25T13:42:04;22.40;55.30
30244;DHT22;64022;53.652;9.792;2024-03-25T13:44:30;22.40;55.30
30244;DHT22;64022;53.652;9.792;2024-03-25T13:46:56;22.40;55.30
30244;DHT22;64022;53.652;9.792;2024-03-25T13:49:22;22.40;55.30
30244;DHT22;64022;53.652;9.792;2024-03-25T13:51:51;22.40;55.40
30244;DHT22;64022;53.652;9.792;2024-03-25T13:54:22;22.40;55.40
30244;DHT22;64022;53.652;9.792;2024-03-25T13:56:48;22.30;55.40
30244;DHT22;64022;53.652;9.792;2024-03-25T13:59:14;22.40;55.40
30244;DHT22;64022;53.652;9.792;2024-03-25T14:01:40;22.40;55.40
30244;DHT22;64022;53.652;9.792;2024-03-25T14:04:07;22.40;55.40
30244;DHT22;64022;53.652;9.792;2024-03-25T14:06:33;22.40;55.50
30244;DHT22;64022;53.652;9.792;2024-03-25T14:08:59;22.40;55.50
30244;DHT22;64022;53.652;9.792;2024-03-25T14:11:25;22.40;55.50
30244;DHT22;64022;53.652;9.792;2024-03-25T14:13:50;22.40;55.50
30244;DHT22;64022;53.652;9.792;2024-03-25T14:16:16;22.40;55.50
30244;DHT22;64022;53.652;9.792;2024-03-25T14:18:42;22.40;55.50
30244;DHT22;64022;53.652;9.792;2024-03-25T14:21:08;22.40;55.50
30244;DHT22;64022;53.652;9.792;2024-03-25T14:23:34;22.40;55.60
30244;DHT22;64022;53.652;9.792;2024-03-25T14:26:00;22.30;55.50
30244;DHT22;64022;53.652;9.792;2024-03-25T14:28:25;22.40;55.60
30244;DHT22;64022;53.652;9.792;2024-03-25T14:30:51;22.40;55.60
30244;DHT22;64022;53.652;9.792;2024-03-25T14:33:17;22.40;55.60
30244;DHT22;64022;53.652;9.792;2024-03-25T14:35:43;22.30;55.50
30244;DHT22;64022;53.652;9.792;2024-03-25T14:38:09;22.30;55.60
30244;DHT22;64022;53.652;9.792;2024-03-25T14:40:39;22.30;55.60
30244;DHT22;64022;53.652;9.792;2024-03-25T14:43:04;22.30;55.60
30244;DHT22;64022;53.652;9.792;2024-03-25T14:45:31;22.30;55.60
30244;DHT22;64022;53.652;9.792;2024-03-25T14:47:56;22.30;55.60
30244;DHT22;64022;53.652;9.792;2024-03-25T14:50:23;22.40;55.70
30244;DHT22;64022;53.652;9.792;2024-03-25T14:52:49;22.40;55.70
30244;DHT22;64022;53.652;9.792;2024-03-25T14:55:15;22.30;55.70
30244;DHT22;64022;53.652;9.792;2024-03-25T14:57:42;22.30;55.70
30244;DHT22;64022;53.652;9.792;2024-03-25T15:00:08;22.30;55.70
30244;DHT22;64022;53.652;9.792;2024-03-25T15:02:36;22.30;55.70
30244;DHT22;64022;53.652;9.792;2024-03-25T15:05:02;22.30;55.70
30244;DHT22;64022;53.652;9.792;2024-03-25T15:07:32;22.30;55.70
30244;DHT22;64022;53.652;9.792;2024-03-25T15:09:57;22.30;55.30
30244;DHT22;64022;53.652;9.792;2024-03-25T15:12:23;22.20;53.60
30244;DHT22;64022;53.652;9.792;2024-03-25T15:14:51;22.10;52.10
30244;DHT22;64022;53.652;9.792;2024-03-25T15:17:17;21.80;51.10
30244;DHT22;64022;53.652;9.792;2024-03-25T15:19:42;21.70;51.40
30244;DHT22;64022;53.652;9.792;2024-03-25T15:22:08;21.70;51.70
30244;DHT22;64022;53.652;9.792;2024-03-25T15:24:34;21.70;51.90
30244;DHT22;64022;53.652;9.792;2024-03-25T15:26:59;21.70;52.00
30244;DHT22;64022;53.652;9.792;2024-03-25T15:29:25;21.80;52.20